Time;durP1;ratioP1;P1;durP2;ratioP2;P2;SDS_P1;SDS_P2;PMS_P1;PMS_P2;Temp;Humidity;BMP_temperature;BMP_pressure;BME280_temperature;BME280_humidity;BME280_pressure;Samples;Min_cycle;Max_cycle;Signal;HPM_P1;HPM_P2
2023/03/17 00:00:48;;;;;;;1.70;1.55;;;12.00;51.70;;;;;;4993563;28;20117;-47
2023/03/17 00:03:29;;;;;;;2.25;1.55;;;12.00;51.90;;;;;;4993793;28;20108;-47
2023/03/17 00:05:57;;;;;;;1.27;1.17;;;12.00;52.10;;;;;;4998871;28;20531;-47
2023/03/17 00:08:34;;;;;;;4.32;1.50;;;12.00;52.00;;;;;;4993372;28;20046;-47
2023/03/17 00:11:01;;;;;;;1.95;1.85;;;11.90;52.30;;;;;;4993738;28;20521;-46
2023/03/17 00:13:32;;;;;;;2.60;1.40;;;11.90;52.10;;;;;;4992965;28;20101;-45
2023/03/17 00:16:02;;;;;;;1.73;1.63;;;11.90;52.00;;;;;;4993065;28;20038;-47
2023/03/17 00:18:30;;;;;;;1.70;1.60;;;11.80;52.10;;;;;;4993173;28;20566;-46
2023/03/17 00:20:58;;;;;;;3.95;2.00;;;11.80;52.10;;;;;;4997027;28;20049;-47
2023/03/17 00:23:25;;;;;;;2.00;1.73;;;11.80;52.10;;;;;;4994057;28;20057;-46
2023/03/17 00:25:56;;;;;;;1.92;1.73;;;11.80;52.20;;;;;;4993392;28;20372;-46
2023/03/17 00:28:26;;;;;;;;;;;11.70;52.20;;;;;;4993324;28;20049;-47
2023/03/17 00:31:05;;;;;;;1.90;1.60;;;11.80;52.20;;;;;;4993574;28;19926;-45
2023/03/17 00:33:36;;;;;;;3.78;1.77;;;11.80;52.10;;;;;;4992672;28;20130;-46
2023/03/17 00:36:06;;;;;;;2.35;1.67;;;11.70;52.00;;;;;;4991707;28;20038;-45
2023/03/17 00:38:36;;;;;;;2.85;1.88;;;11.70;52.10;;;;;;4992672;28;20114;-49
2023/03/17 00:41:03;;;;;;;2.85;1.60;;;11.70;52.00;;;;;;4997182;28;20038;-47
2023/03/17 00:43:30;;;;;;;2.17;1.80;;;11.70;52.10;;;;;;4989727;28;20437;-46
2023/03/17 00:45:59;;;;;;;1.88;1.65;;;11.70;52.10;;;;;;4992891;28;20043;-47
2023/03/17 00:48:28;;;;;;;3.47;1.60;;;11.70;52.10;;;;;;4993748;28;20050;-46
2023/03/17 00:50:58;;;;;;;3.05;1.73;;;11.70;52.30;;;;;;4992505;28;20054;-46
2023/03/17 00:53:27;;;;;;;;;;;11.70;52.40;;;;;;4994613;28;20384;-45
2023/03/17 00:55:58;;;;;;;2.88;1.92;;;11.70;52.30;;;;;;4988297;28;19922;-47
2023/03/17 00:58:30;;;;;;;2.28;1.60;;;11.70;52.20;;;;;;4989055;28;20054;-46
2023/03/17 01:00:59;;;;;;;2.53;1.88;;;11.70;52.40;;;;;;4996321;28;20038;-44
2023/03/17 01:03:29;;;;;;;3.65;2.20;;;11.60;52.50;;;;;;4993161;28;20038;-47
2023/03/17 01:05:56;;;;;;;3.38;1.70;;;11.60;52.30;;;;;;4992521;28;20049;-48
2023/03/17 01:08:27;;;;;;;4.53;1.73;;;11.60;52.40;;;;;;4992723;28;20046;-46
2023/03/17 01:10:53;;;;;;;2.53;1.75;;;11.60;52.40;;;;;;4994429;28;20034;-46
2023/03/17 01:13:20;;;;;;;1.77;1.55;;;11.60;52.50;;;;;;4974388;28;20058;-47
2023/03/17 01:15:51;;;;;;;1.58;1.40;;;11.60;52.60;;;;;;4992348;28;20556;-46
2023/03/17 01:18:20;;;;;;;3.13;2.00;;;11.60;52.80;;;;;;4994502;28;20078;-47
2023/03/17 01:20:48;;;;;;;3.15;2.10;;;11.60;52.80;;;;;;4994695;28;20587;-48
2023/03/17 01:23:16;;;;;;;1.90;1.80;;;11.50;52.70;;;;;;4987927;28;20038;-46
2023/03/17 01:25:43;;;;;;;2.95;1.40;;;11.50;52.80;;;;;;4974384;28;20045;-47
2023/03/17 01:28:13;;;;;;;2.33;1.60;;;11.50;52.80;;;;;;4992304;28;20047;-47
2023/03/17 01:30:41;;;;;;;1.98;1.45;;;11.50;53.00;;;;;;4994338;28;20046;-47
2023/03/17 01:33:09;;;;;;;4.32;1.55;;;11.50;52.80;;;;;;4990346;28;20057;-46
2023/03/17 01:35:37;;;;;;;2.55;1.65;;;11.50;52.80;;;;;;4989639;28;20046;-47
2023/03/17 01:38:07;;;;;;;3.03;1.45;;;11.50;52.90;;;;;;4992881;28;20406;-46
2023/03/17 01:40:39;;;;;;;3.53;1.40;;;11.50;53.00;;;;;;4990605;28;20384;-46
2023/03/17 01:43:07;;;;;;;3.67;1.90;;;11.50;53.10;;;;;;4990167;28;20043;-47
2023/03/17 01:46:08;;;;;;;3.80;1.92;;;11.40;52.90;;;;;;4989992;28;20057;-46
2023/03/17 01:48:43;;;;;;;3.17;1.42;;;11.40;53.00;;;;;;4973653;28;20141;-48
2023/03/17 01:51:32;;;;;;;2.83;1.90;;;11.40;52.80;;;;;;4991808;28;20145;-45
2023/03/17 01:54:05;;;;;;;3.15;1.48;;;11.40;53.00;;;;;;4974118;28;20058;-45
2023/03/17 01:56:33;;;;;;;4.65;2.20;;;11.40;52.90;;;;;;4989678;28;20038;-46
2023/03/17 01:59:14;;;;;;;4.72;2.00;;;11.40;52.70;;;;;;4990120;28;20057;-48
2023/03/17 02:01:52;;;;;;;2.90;1.85;;;11.30;52.90;;;;;;4994301;28;20046;-49
2023/03/17 02:04:21;;;;;;;3.22;1.67;;;11.30;53.00;;;;;;4991155;28;20043;-45
2023/03/17 02:06:51;;;;;;;2.03;1.63;;;11.30;53.00;;;;;;4966591;28;20050;-47
2023/03/17 02:09:26;;;;;;;2.97;2.13;;;11.20;53.00;;;;;;4993196;28;20471;-45
2023/03/17 02:11:54;;;;;;;2.60;1.63;;;11.20;52.90;;;;;;4986175;28;20045;-45
2023/03/17 02:14:27;;;;;;;2.00;1.80;;;11.20;53.10;;;;;;4987060;28;20322;-46
2023/03/17 02:16:59;;;;;;;2.53;2.17;;;11.10;53.00;;;;;;4991542;28;20034;-46
2023/03/17 02:19:29;;;;;;;5.13;2.17;;;11.10;53.10;;;;;;4988607;28;20411;-47
2023/03/17 02:21:57;;;;;;;4.75;2.45;;;11.10;53.10;;;;;;4996234;28;20038;-45
2023/03/17 02:24:49;;;;;;;3.03;2.00;;;11.00;53.20;;;;;;4990962;28;20046;-46
2023/03/17 02:27:36;;;;;;;2.95;2.13;;;11.00;53.30;;;;;;4991150;28;20046;-47
2023/03/17 02:30:09;;;;;;;3.78;2.38;;;11.00;53.50;;;;;;4986531;28;20046;-46
2023/03/17 02:32:42;;;;;;;3.55;1.70;;;10.90;53.40;;;;;;4988048;28;20089;-47
2023/03/17 02:35:10;;;;;;;2.92;1.77;;;10.90;53.50;;;;;;4972969;28;20074;-47
2023/03/17 02:37:37;;;;;;;3.90;2.38;;;10.90;53.60;;;;;;4990689;28;20042;-45
2023/03/17 02:40:05;;;;;;;3.08;1.90;;;10.90;53.70;;;;;;4994715;28;20060;-46
2023/03/17 02:42:33;;;;;;;2.60;2.10;;;10.80;53.70;;;;;;4990454;28;20603;-44
2023/03/17 02:45:05;;;;;;;;;;;10.80;53.80;;;;;;4991008;28;20502;-44
2023/03/17 02:47:32;;;;;;;2.20;1.80;;;10.80;53.70;;;;;;4990853;28;19929;-47
2023/03/17 02:50:01;;;;;;;2.15;1.92;;;10.80;53.60;;;;;;4992723;28;20049;-46
2023/03/17 02:52:29;;;;;;;4.22;2.28;;;10.80;53.90;;;;;;4994491;28;20043;-44
2023/03/17 02:54:56;;;;;;;3.80;1.98;;;10.80;54.00;;;;;;4990708;28;20042;-47
2023/03/17 02:57:25;;;;;;;3.45;2.08;;;10.70;54.00;;;;;;4990092;28;20522;-47
2023/03/17 02:59:53;;;;;;;4.07;2.70;;;10.70;54.10;;;;;;4991446;28;20109;-45
2023/03/17 03:02:20;;;;;;;4.00;2.20;;;10.70;54.30;;;;;;4993575;28;20407;-50
2023/03/17 03:04:47;;;;;;;2.97;2.25;;;10.60;54.40;;;;;;4973010;28;20038;-47
2023/03/17 03:07:19;;;;;;;4.07;2.28;;;10.60;54.50;;;;;;4990501;28;20053;-46
2023/03/17 03:09:48;;;;;;;3.72;1.95;;;10.60;54.60;;;;;;4991971;28;20121;-46
2023/03/17 03:12:16;;;;;;;3.83;2.15;;;10.60;54.70;;;;;;4990419;28;20125;-45
2023/03/17 03:14:43;;;;;;;3.33;2.40;;;10.50;54.70;;;;;;4990400;28;20518;-46
2023/03/17 03:17:12;;;;;;;2.35;1.80;;;10.50;54.80;;;;;;4992460;28;20515;-46
2023/03/17 03:19:44;;;;;;;3.65;2.25;;;10.50;55.00;;;;;;4989666;28;20470;-45
2023/03/17 03:22:11;;;;;;;3.10;2.08;;;10.30;54.90;;;;;;4992917;28;20062;-45
2023/03/17 03:24:40;;;;;;;3.33;2.40;;;10.40;55.00;;;;;;4990315;28;20042;-47
2023/03/17 03:27:08;;;;;;;2.88;2.42;;;10.40;55.00;;;;;;4990717;28;20039;-47
2023/03/17 03:29:37;;;;;;;2.65;2.20;;;10.30;55.10;;;;;;4990607;28;20058;-47
2023/03/17 03:32:07;;;;;;;3.15;1.90;;;10.30;55.20;;;;;;4990126;28;20049;-47
2023/03/17 03:34:36;;;;;;;2.65;1.92;;;10.30;55.30;;;;;;4989925;28;20121;-45
2023/03/17 03:37:08;;;;;;;2.00;1.80;;;10.30;55.40;;;;;;4990369;28;20045;-44
2023/03/17 03:39:36;;;;;;;4.43;2.58;;;10.20;55.40;;;;;;4994645;28;20092;-47
2023/03/17 03:42:06;;;;;;;4.30;2.05;;;10.20;55.60;;;;;;4990085;28;20423;-45
2023/03/17 03:44:32;;;;;;;3.70;2.22;;;10.10;55.70;;;;;;4990142;28;20053;-47
2023/03/17 03:47:00;;;;;;;4.10;2.30;;;10.10;55.80;;;;;;4993424;28;20384;-45
2023/03/17 03:49:32;;;;;;;2.45;2.10;;;10.10;56.00;;;;;;4995907;28;20049;-44
2023/03/17 03:52:04;;;;;;;4.20;2.33;;;10.00;56.00;;;;;;4995199;28;20586;-48
2023/03/17 03:54:30;;;;;;;3.20;1.73;;;10.10;56.30;;;;;;4993632;28;20570;-44
2023/03/17 03:56:59;;;;;;;3.15;2.45;;;10.00;56.20;;;;;;4993448;28;20034;-44
2023/03/17 03:59:26;;;;;;;5.47;2.67;;;10.00;56.50;;;;;;4993364;28;20104;-50
2023/03/17 04:02:02;;;;;;;3.83;2.05;;;10.00;56.40;;;;;;4996644;28;20044;-50
2023/03/17 04:04:37;;;;;;;4.00;2.10;;;10.00;56.40;;;;;;4993455;28;20054;-46
2023/03/17 04:07:04;;;;;;;3.38;2.35;;;10.00;56.50;;;;;;4993644;28;20077;-47
2023/03/17 04:09:31;;;;;;;2.83;2.00;;;10.00;56.60;;;;;;4997625;28;20047;-46
2023/03/17 04:11:58;;;;;;;2.65;1.92;;;10.00;57.40;;;;;;4993115;28;20438;-48
2023/03/17 04:14:24;;;;;;;3.22;2.13;;;10.00;56.90;;;;;;4993348;28;20055;-45
2023/03/17 04:16:54;;;;;;;2.40;2.20;;;9.90;56.90;;;;;;4994981;28;20042;-45
2023/03/17 04:19:26;;;;;;;2.65;1.90;;;9.90;56.90;;;;;;4976267;28;20050;-45
2023/03/17 04:21:55;;;;;;;5.83;2.00;;;9.90;57.10;;;;;;4991869;28;20064;-49
2023/03/17 04:24:26;;;;;;;4.00;2.38;;;10.00;57.00;;;;;;4993236;28;20340;-44
2023/03/17 04:26:56;;;;;;;3.53;1.90;;;10.00;57.10;;;;;;4993093;28;20081;-47
2023/03/17 04:29:30;;;;;;;3.10;2.15;;;9.90;57.10;;;;;;4993092;28;20133;-46
2023/03/17 04:32:00;;;;;;;2.50;2.03;;;10.00;57.60;;;;;;4998158;28;20476;-48
2023/03/17 04:34:29;;;;;;;3.30;2.20;;;10.00;57.30;;;;;;4992831;28;20053;-48
2023/03/17 04:36:58;;;;;;;2.78;2.50;;;10.00;57.20;;;;;;4985494;28;20097;-45
2023/03/17 04:39:28;;;;;;;3.20;2.85;;;10.00;57.30;;;;;;4992556;28;20050;-46
2023/03/17 04:41:56;;;;;;;3.47;2.03;;;10.00;57.30;;;;;;4996583;28;20521;-46
2023/03/17 04:44:23;;;;;;;3.40;2.13;;;10.00;57.40;;;;;;4992998;28;20129;-46
2023/03/17 04:46:50;;;;;;;4.70;2.45;;;10.00;57.40;;;;;;4992654;28;21397;-45
2023/03/17 04:49:17;;;;;;;2.65;2.25;;;10.00;57.40;;;;;;4994516;28;20050;-46
2023/03/17 04:51:50;;;;;;;2.78;2.22;;;10.00;57.40;;;;;;4997077;28;20073;-47
2023/03/17 04:54:17;;;;;;;2.67;2.42;;;10.00;57.40;;;;;;4992653;28;20499;-49
2023/03/17 04:56:48;;;;;;;4.72;2.55;;;10.00;57.30;;;;;;4974372;28;20057;-46
2023/03/17 04:59:18;;;;;;;5.63;2.55;;;10.00;57.20;;;;;;4993984;28;20399;-45
2023/03/17 05:01:51;;;;;;;5.47;2.13;;;10.00;57.10;;;;;;4991927;28;20050;-46
2023/03/17 05:04:18;;;;;;;2.92;2.17;;;10.00;57.00;;;;;;4991868;28;20514;-46
2023/03/17 05:06:57;;;;;;;4.20;2.53;;;10.00;57.00;;;;;;4984278;28;20470;-45
2023/03/17 05:09:27;;;;;;;1.98;1.83;;;10.00;57.10;;;;;;4993465;28;20042;-45
2023/03/17 05:12:03;;;;;;;3.42;2.00;;;10.00;57.20;;;;;;4991930;28;20042;-47
2023/03/17 05:14:30;;;;;;;4.13;2.22;;;10.00;57.30;;;;;;4992474;28;20454;-46
2023/03/17 05:16:58;;;;;;;3.22;1.98;;;10.00;57.10;;;;;;4993121;28;20041;-46
2023/03/17 05:19:27;;;;;;;3.38;2.53;;;10.00;57.10;;;;;;4995464;28;20247;-49
2023/03/17 05:21:54;;;;;;;3.97;2.53;;;10.00;57.20;;;;;;4996142;28;20034;-46
2023/03/17 05:24:22;;;;;;;4.57;2.05;;;10.00;57.20;;;;;;4992106;28;20053;-45
2023/03/17 05:26:51;;;;;;;2.85;2.35;;;10.00;57.10;;;;;;4991960;28;20148;-46
2023/03/17 05:29:27;;;;;;;3.08;1.88;;;10.00;57.20;;;;;;4992887;28;20085;-46
2023/03/17 05:31:59;;;;;;;2.55;2.17;;;10.00;57.10;;;;;;4987317;28;20049;-45
2023/03/17 05:34:28;;;;;;;3.30;2.50;;;10.00;57.20;;;;;;4991232;28;20046;-45
2023/03/17 05:36:55;;;;;;;3.70;2.13;;;10.00;57.40;;;;;;5011217;23;20534;-45
2023/03/17 05:39:27;;;;;;;3.85;2.40;;;10.00;57.30;;;;;;4983976;28;20039;-47
2023/03/17 05:41:55;;;;;;;4.07;2.10;;;10.00;57.30;;;;;;4990318;28;20069;-45
2023/03/17 05:44:22;;;;;;;3.88;2.80;;;10.00;57.30;;;;;;4973816;28;20030;-47
2023/03/17 05:46:49;;;;;;;4.13;2.58;;;10.00;57.40;;;;;;4991919;28;20048;-44
2023/03/17 05:49:15;;;;;;;5.28;2.78;;;10.00;57.30;;;;;;4985549;28;20034;-47
2023/03/17 05:51:42;;;;;;;4.18;2.30;;;10.00;57.40;;;;;;4985086;28;20038;-46
2023/03/17 05:54:08;;;;;;;5.38;2.72;;;10.00;57.30;;;;;;4986624;28;20053;-48
2023/03/17 05:56:37;;;;;;;3.47;2.60;;;10.00;57.30;;;;;;4982529;28;20050;-45
2023/03/17 05:59:04;;;;;;;4.45;2.58;;;10.00;57.30;;;;;;4985876;28;20047;-45
2023/03/17 06:01:31;;;;;;;3.35;3.03;;;10.00;57.30;;;;;;4986334;28;20034;-47
2023/03/17 06:03:59;;;;;;;3.95;2.28;;;10.00;57.20;;;;;;4987798;28;20162;-49
2023/03/17 06:06:27;;;;;;;3.78;2.63;;;10.00;57.30;;;;;;4983829;28;20046;-47
2023/03/17 06:08:54;;;;;;;4.18;2.40;;;10.00;57.20;;;;;;4984294;28;20039;-46
2023/03/17 06:11:21;;;;;;;9.88;2.65;;;10.00;57.30;;;;;;4975132;28;20575;-46
2023/03/17 06:13:48;;;;;;;3.90;2.40;;;10.00;57.30;;;;;;4985395;28;20038;-49
2023/03/17 06:16:20;;;;;;;3.88;2.63;;;10.10;57.30;;;;;;4988176;28;20542;-47
2023/03/17 06:18:47;;;;;;;4.30;2.53;;;10.10;57.40;;;;;;4991666;28;20057;-45
2023/03/17 06:21:14;;;;;;;4.05;2.60;;;10.10;57.50;;;;;;4968086;28;20038;-46
2023/03/17 06:23:41;;;;;;;4.38;2.47;;;10.10;57.40;;;;;;4980666;28;20046;-46
2023/03/17 06:26:07;;;;;;;4.60;2.63;;;10.10;57.40;;;;;;4995109;28;20129;-46
2023/03/17 06:28:34;;;;;;;7.32;2.47;;;10.20;57.30;;;;;;4994963;28;20046;-50
2023/03/17 06:31:01;;;;;;;4.30;2.78;;;10.20;57.30;;;;;;4972839;28;20186;-50
2023/03/17 06:33:30;;;;;;;3.65;2.10;;;10.20;57.30;;;;;;4982170;28;20129;-48
2023/03/17 06:35:57;;;;;;;3.55;2.20;;;10.20;57.30;;;;;;4976544;28;21916;-47
2023/03/17 06:38:24;;;;;;;4.30;2.70;;;10.30;57.30;;;;;;4987782;28;20042;-48
2023/03/17 06:40:50;;;;;;;6.25;2.15;;;10.30;57.20;;;;;;4985777;28;20065;-50
2023/03/17 06:43:18;;;;;;;5.15;2.22;;;10.30;57.20;;;;;;4988893;28;20547;-44
2023/03/17 06:45:45;;;;;;;2.38;2.17;;;10.40;57.30;;;;;;4984579;28;20150;-50
2023/03/17 06:48:12;;;;;;;5.57;2.25;;;10.40;57.30;;;;;;4976877;28;20494;-48
2023/03/17 06:50:39;;;;;;;6.15;1.92;;;10.40;57.20;;;;;;4968660;28;20527;-47
2023/03/17 06:53:06;;;;;;;2.50;2.20;;;10.50;57.20;;;;;;4980071;28;20050;-46
2023/03/17 06:55:32;;;;;;;3.35;2.15;;;10.60;57.20;;;;;;4980429;28;20098;-46
2023/03/17 06:58:00;;;;;;;3.67;2.22;;;10.60;57.10;;;;;;4983146;28;20399;-46
2023/03/17 07:00:29;;;;;;;3.65;2.25;;;10.70;57.20;;;;;;4983272;28;20137;-49
2023/03/17 07:02:56;;;;;;;3.63;2.10;;;10.70;57.20;;;;;;4983966;28;20070;-48
2023/03/17 07:05:23;;;;;;;3.42;1.92;;;10.80;57.10;;;;;;4981032;28;20042;-47
2023/03/17 07:07:49;;;;;;;2.97;2.40;;;10.80;57.00;;;;;;4982484;28;20065;-49
2023/03/17 07:10:16;;;;;;;3.83;2.17;;;10.90;57.10;;;;;;4985441;28;20052;-50
2023/03/17 07:12:44;;;;;;;4.72;2.17;;;11.00;57.20;;;;;;4984093;28;20101;-50
2023/03/17 07:15:14;;;;;;;4.60;2.10;;;11.00;57.10;;;;;;4983237;28;20038;-46
2023/03/17 07:17:40;;;;;;;4.40;1.95;;;11.10;57.10;;;;;;4980963;28;20054;-47
2023/03/17 07:20:09;;;;;;;3.10;2.03;;;11.20;57.10;;;;;;4988849;28;20503;-50
2023/03/17 07:22:36;;;;;;;7.95;2.80;;;11.20;57.10;;;;;;4987621;28;20580;-47
2023/03/17 07:25:03;;;;;;;2.35;1.98;;;11.30;56.90;;;;;;4986687;28;20053;-46
2023/03/17 07:27:30;;;;;;;2.70;1.90;;;11.40;56.80;;;;;;4984865;28;20050;-46
2023/03/17 07:29:56;;;;;;;3.35;1.80;;;11.40;56.70;;;;;;4988703;28;20050;-48
2023/03/17 07:32:23;;;;;;;3.22;2.20;;;11.50;56.60;;;;;;4974870;28;20047;-50
2023/03/17 07:34:50;;;;;;;3.47;1.95;;;11.60;56.60;;;;;;4990274;28;20525;-48
2023/03/17 07:37:16;;;;;;;4.10;2.10;;;11.60;56.40;;;;;;4992226;28;20050;-50
2023/03/17 07:39:46;;;;;;;7.35;2.42;;;11.60;56.20;;;;;;4989774;28;20526;-48
2023/03/17 07:42:14;;;;;;;2.53;2.15;;;11.70;56.30;;;;;;4982015;28;20047;-47
2023/03/17 07:44:41;;;;;;;6.30;2.63;;;11.80;56.20;;;;;;4974847;28;20046;-47
2023/03/17 07:47:09;;;;;;;3.13;2.22;;;11.80;56.20;;;;;;4982971;28;20034;-49
2023/03/17 07:49:39;;;;;;;3.33;2.00;;;11.90;56.10;;;;;;4983329;28;20047;-47
2023/03/17 07:52:09;;;;;;;5.07;2.33;;;11.90;56.00;;;;;;4978239;28;20035;-46
2023/03/17 07:54:36;;;;;;;3.40;2.30;;;11.90;55.80;;;;;;4986075;28;20047;-48
2023/03/17 07:57:06;;;;;;;5.47;2.40;;;12.00;55.80;;;;;;4986238;28;20129;-48
2023/03/17 07:59:33;;;;;;;2.10;1.90;;;12.00;55.70;;;;;;4992592;28;20034;-50
2023/03/17 08:02:00;;;;;;;3.90;2.03;;;12.00;55.50;;;;;;4992071;28;20046;-48
2023/03/17 08:04:29;;;;;;;4.47;2.70;;;12.10;55.80;;;;;;4987758;28;20042;-47
2023/03/17 08:06:56;;;;;;;4.07;2.10;;;12.10;55.70;;;;;;4992222;28;20450;-49
2023/03/17 08:09:24;;;;;;;4.55;2.65;;;12.20;55.70;;;;;;4968838;28;20459;-49
2023/03/17 08:11:51;;;;;;;2.85;1.80;;;12.30;55.60;;;;;;4984213;28;20480;-48
2023/03/17 08:14:17;;;;;;;2.90;2.20;;;12.30;55.70;;;;;;4987374;28;20065;-47
2023/03/17 08:16:44;;;;;;;3.00;1.92;;;12.30;55.60;;;;;;4986371;28;20566;-46
2023/03/17 08:19:11;;;;;;;3.53;2.33;;;12.30;55.50;;;;;;4984695;28;20119;-46
2023/03/17 08:21:38;;;;;;;3.45;2.53;;;12.40;56.40;;;;;;4971075;28;20046;-48
2023/03/17 08:24:05;;;;;;;3.83;2.33;;;12.40;55.70;;;;;;4989304;28;20038;-48
2023/03/17 08:26:33;;;;;;;6.85;2.45;;;12.50;55.90;;;;;;4984724;28;20054;-49
2023/03/17 08:29:00;;;;;;;4.15;1.88;;;12.50;56.00;;;;;;4982880;28;20054;-47
2023/03/17 08:31:27;;;;;;;5.22;2.55;;;12.60;56.00;;;;;;4984985;28;20057;-49
2023/03/17 08:33:55;;;;;;;4.13;2.10;;;12.70;56.00;;;;;;4967590;28;20053;-48
2023/03/17 08:36:22;;;;;;;4.10;2.08;;;12.70;55.80;;;;;;4968382;28;20042;-50
2023/03/17 08:38:49;;;;;;;3.00;2.20;;;12.80;56.00;;;;;;4984228;28;20121;-50
2023/03/17 08:41:19;;;;;;;4.50;2.15;;;12.90;56.00;;;;;;4989346;28;20042;-50
2023/03/17 08:43:50;;;;;;;5.35;2.40;;;13.00;55.80;;;;;;4991141;28;20049;-50
2023/03/17 08:46:20;;;;;;;5.00;2.97;;;13.10;55.70;;;;;;4982711;28;20054;-47
2023/03/17 08:48:49;;;;;;;3.03;2.10;;;13.20;55.80;;;;;;4991068;28;20052;-50
2023/03/17 08:51:18;;;;;;;3.45;2.10;;;13.30;55.60;;;;;;4984968;28;20507;-50
2023/03/17 08:53:48;;;;;;;2.50;1.80;;;13.40;55.40;;;;;;4985674;28;20050;-48
2023/03/17 08:56:15;;;;;;;5.50;2.17;;;13.50;55.30;;;;;;4983636;28;20577;-47
2023/03/17 08:58:42;;;;;;;3.97;2.10;;;13.50;55.20;;;;;;4981263;28;20030;-50
2023/03/17 09:01:12;;;;;;;2.78;2.03;;;13.60;55.10;;;;;;4992045;28;20497;-46
2023/03/17 09:03:39;;;;;;;3.10;2.22;;;13.70;55.10;;;;;;4990567;28;20519;-50
2023/03/17 09:06:10;;;;;;;3.75;2.88;;;13.80;55.00;;;;;;4983150;28;20046;-47
2023/03/17 09:08:38;;;;;;;3.88;2.63;;;13.90;55.00;;;;;;4992420;28;20050;-50
2023/03/17 09:11:06;;;;;;;2.10;1.90;;;14.00;54.90;;;;;;4992037;28;20057;-48
2023/03/17 09:13:34;;;;;;;3.25;2.20;;;14.10;54.90;;;;;;4986179;28;20053;-50
2023/03/17 09:16:03;;;;;;;3.97;2.08;;;14.10;54.70;;;;;;4989637;28;20045;-49
2023/03/17 09:18:31;;;;;;;3.35;2.17;;;14.30;54.40;;;;;;4992050;28;20066;-46
2023/03/17 09:21:03;;;;;;;3.10;2.63;;;14.30;54.40;;;;;;4987992;28;20403;-51
2023/03/17 09:23:31;;;;;;;7.15;2.28;;;14.40;54.50;;;;;;4986457;28;20461;-46
2023/03/17 09:26:00;;;;;;;2.20;2.10;;;14.50;54.60;;;;;;4990712;28;20514;-46
2023/03/17 09:28:27;;;;;;;2.25;1.90;;;14.60;54.60;;;;;;4991648;28;20137;-48
2023/03/17 09:30:58;;;;;;;3.63;1.63;;;14.70;54.30;;;;;;4988573;28;20045;-46
2023/03/17 09:33:25;;;;;;;3.53;2.20;;;14.80;54.30;;;;;;4985579;28;20548;-50
2023/03/17 09:35:53;;;;;;;2.13;1.92;;;14.80;53.90;;;;;;4990314;28;20068;-47
2023/03/17 09:38:21;;;;;;;2.97;2.10;;;14.90;53.80;;;;;;4991879;28;20097;-48
2023/03/17 09:40:51;;;;;;;2.58;1.60;;;15.00;53.70;;;;;;4981508;28;20045;-48
2023/03/17 09:43:32;;;;;;;2.92;2.15;;;15.10;53.70;;;;;;4987233;28;20620;-46
2023/03/17 09:46:11;;;;;;;5.53;2.40;;;15.20;53.90;;;;;;4990547;28;20042;-48
2023/03/17 09:48:48;;;;;;;4.32;2.30;;;15.30;53.70;;;;;;4983623;28;20416;-50
2023/03/17 09:51:18;;;;;;;5.13;2.50;;;15.40;53.60;;;;;;4979085;28;20050;-47
2023/03/17 09:54:05;;;;;;;2.70;1.80;;;15.40;53.30;;;;;;4984317;28;20065;-50
2023/03/17 09:56:33;;;;;;;3.17;1.80;;;15.50;53.30;;;;;;4980228;28;20140;-50
2023/03/17 09:59:27;;;;;;;5.38;1.90;;;15.60;53.20;;;;;;4983550;28;20050;-50
2023/03/17 10:01:54;;;;;;;3.28;2.25;;;15.60;52.80;;;;;;4972875;28;20525;-50
2023/03/17 10:04:21;;;;;;;5.55;2.10;;;15.70;53.10;;;;;;4982910;28;20652;-45
2023/03/17 10:06:48;;;;;;;2.38;1.83;;;15.70;53.00;;;;;;4989029;28;20034;-47
2023/03/17 10:09:27;;;;;;;4.05;2.53;;;15.80;53.20;;;;;;4991611;28;20517;-50
2023/03/17 10:12:08;;;;;;;3.00;2.10;;;15.90;53.60;;;;;;4984472;28;20043;-47
2023/03/17 10:14:56;;;;;;;2.60;1.57;;;15.90;53.40;;;;;;4989670;28;20038;-48
2023/03/17 10:17:29;;;;;;;3.08;1.90;;;16.00;53.50;;;;;;4979077;28;20161;-46
2023/03/17 10:20:23;;;;;;;4.28;2.00;;;16.10;53.30;;;;;;4988140;28;20088;-47
2023/03/17 10:23:06;;;;;;;3.03;1.85;;;16.20;53.30;;;;;;4985508;28;20039;-47
2023/03/17 10:25:36;;;;;;;;;;;16.30;53.30;;;;;;4984765;28;20050;-48
2023/03/17 10:28:28;;;;;;;3.05;1.60;;;16.40;53.40;;;;;;4990540;28;19921;-47
2023/03/17 10:31:12;;;;;;;6.65;1.85;;;16.50;53.00;;;;;;4971845;28;20046;-49
2023/03/17 10:33:39;;;;;;;3.40;1.65;;;16.60;53.10;;;;;;4980749;28;20101;-48
2023/03/17 10:36:08;;;;;;;6.32;2.60;;;16.60;52.50;;;;;;4989465;28;20038;-49
2023/03/17 10:38:39;;;;;;;3.15;2.03;;;16.60;52.30;;;;;;4988222;28;20081;-48
2023/03/17 10:41:12;;;;;;;3.63;1.70;;;16.70;51.80;;;;;;4982982;28;20047;-50
2023/03/17 10:43:47;;;;;;;;;;;16.80;51.80;;;;;;4991047;28;20561;-46
2023/03/17 10:46:18;;;;;;;3.47;1.90;;;16.90;52.30;;;;;;4989361;28;19933;-47
2023/03/17 10:48:55;;;;;;;5.28;1.88;;;17.00;51.30;;;;;;4980567;28;20449;-50
2023/03/17 10:51:36;;;;;;;2.85;1.73;;;17.10;51.00;;;;;;4979386;28;20104;-47
2023/03/17 10:54:16;;;;;;;2.30;1.83;;;17.20;50.50;;;;;;4984724;28;20042;-48
2023/03/17 10:56:47;;;;;;;3.40;1.65;;;17.30;50.70;;;;;;4988406;28;20050;-50
2023/03/17 10:59:26;;;;;;;3.88;1.60;;;17.50;51.10;;;;;;4988702;28;20096;-48
2023/03/17 11:01:57;;;;;;;2.30;1.70;;;17.60;50.80;;;;;;4996091;28;20145;-47
2023/03/17 11:04:34;;;;;;;2.13;1.60;;;17.70;50.70;;;;;;4989914;28;20049;-50
2023/03/17 11:07:19;;;;;;;2.70;1.73;;;17.80;50.60;;;;;;4993140;28;20042;-50
2023/03/17 11:09:50;;;;;;;3.10;1.90;;;18.00;50.80;;;;;;4996946;28;20049;-47
2023/03/17 11:12:25;;;;;;;2.97;1.92;;;18.10;50.60;;;;;;4991937;28;20511;-46
2023/03/17 11:15:00;;;;;;;2.60;1.75;;;18.20;50.30;;;;;;4995173;28;20046;-48
2023/03/17 11:17:42;;;;;;;3.40;1.80;;;18.30;50.10;;;;;;4982014;28;20061;-50
2023/03/17 11:20:42;;;;;;;1.90;1.45;;;18.40;49.70;;;;;;4988934;28;20080;-46
2023/03/17 11:23:44;;;;;;;4.32;1.58;;;18.50;50.40;;;;;;4990924;28;20129;-50
2023/03/17 11:26:40;;;;;;;4.13;2.20;;;18.50;50.10;;;;;;4992009;28;20054;-51
2023/03/17 11:29:21;;;;;;;2.42;1.45;;;18.60;50.40;;;;;;4980530;28;20133;-50
2023/03/17 11:32:03;;;;;;;4.13;1.77;;;18.60;50.00;;;;;;4991282;28;20046;-51
2023/03/17 11:34:50;;;;;;;3.35;2.20;;;18.70;49.80;;;;;;4989881;28;20052;-50
2023/03/17 11:37:37;;;;;;;3.30;2.55;;;18.80;49.30;;;;;;4988382;28;20113;-48
2023/03/17 11:40:18;;;;;;;4.40;2.28;;;18.90;49.40;;;;;;4971301;28;20046;-48
2023/03/17 11:43:25;;;;;;;2.88;1.50;;;19.00;49.40;;;;;;4995718;28;20116;-47
2023/03/17 11:46:01;;;;;;;3.72;1.70;;;19.00;48.90;;;;;;4986838;28;20411;-49
2023/03/17 11:48:37;;;;;;;2.78;1.90;;;19.10;49.00;;;;;;4982531;28;20431;-51
2023/03/17 11:51:14;;;;;;;2.13;1.55;;;19.10;48.80;;;;;;4991624;28;20046;-47
2023/03/17 11:53:48;;;;;;;2.40;1.52;;;19.20;48.60;;;;;;4986097;28;20046;-47
2023/03/17 11:56:21;;;;;;;2.58;1.63;;;19.20;48.80;;;;;;4996868;28;20105;-48
2023/03/17 11:58:55;;;;;;;2.63;1.77;;;19.30;49.00;;;;;;4992004;28;20050;-49
2023/03/17 12:01:26;;;;;;;3.50;2.00;;;19.40;48.80;;;;;;5027998;23;20072;-50
2023/03/17 12:04:24;;;;;;;2.60;1.70;;;19.40;48.70;;;;;;5035081;28;20061;-47
2023/03/17 12:06:58;;;;;;;3.00;1.80;;;19.50;48.70;;;;;;5034812;28;20038;-50
2023/03/17 12:09:38;;;;;;;1.60;1.25;;;19.50;48.70;;;;;;5025399;28;20041;-47
2023/03/17 12:12:06;;;;;;;4.07;1.85;;;19.60;48.50;;;;;;5029457;28;20038;-51
2023/03/17 12:14:38;;;;;;;1.80;1.50;;;19.70;48.60;;;;;;5030980;28;20401;-47
2023/03/17 12:17:28;;;;;;;2.72;1.50;;;19.80;48.50;;;;;;5021588;28;20065;-46
2023/03/17 12:20:17;;;;;;;2.38;1.30;;;19.90;48.30;;;;;;5022248;28;20469;-46
2023/03/17 12:23:11;;;;;;;3.47;1.30;;;20.00;48.60;;;;;;5016619;28;20136;-47
2023/03/17 12:25:56;;;;;;;2.17;1.98;;;20.10;48.50;;;;;;5026449;28;20034;-50
2023/03/17 12:28:33;;;;;;;2.28;1.60;;;20.20;48.80;;;;;;5031399;28;20059;-48
2023/03/17 12:31:11;;;;;;;2.70;1.48;;;20.30;48.40;;;;;;5024952;28;20410;-47
2023/03/17 12:33:55;;;;;;;1.92;1.45;;;20.40;47.80;;;;;;5025019;28;20045;-50
2023/03/17 12:36:23;;;;;;;1.50;1.30;;;20.50;47.30;;;;;;5031905;28;20061;-46
2023/03/17 12:39:00;;;;;;;1.50;1.23;;;20.60;47.70;;;;;;5030945;28;20073;-47
2023/03/17 12:41:41;;;;;;;3.13;1.55;;;20.60;47.40;;;;;;5021354;28;20045;-47
2023/03/17 12:44:32;;;;;;;2.75;1.33;;;20.70;47.20;;;;;;5029145;28;20048;-50
2023/03/17 12:47:10;;;;;;;4.00;1.70;;;20.80;46.50;;;;;;5031208;28;20034;-50
2023/03/17 12:49:47;;;;;;;2.65;2.08;;;20.90;46.90;;;;;;5025415;28;20042;-47
2023/03/17 12:52:38;;;;;;;1.85;1.42;;;21.00;46.30;;;;;;5020725;28;20048;-49
2023/03/17 12:55:15;;;;;;;5.00;2.13;;;21.10;46.10;;;;;;5028891;28;20049;-48
2023/03/17 12:57:45;;;;;;;1.63;1.23;;;21.10;46.40;;;;;;5013139;28;20041;-47
2023/03/17 13:00:23;;;;;;;3.67;1.70;;;21.20;46.60;;;;;;5028560;28;20259;-47
2023/03/17 13:03:13;;;;;;;2.35;1.30;;;21.30;46.00;;;;;;5030163;28;20048;-48
2023/03/17 13:05:45;;;;;;;1.23;1.08;;;21.30;45.80;;;;;;5025632;28;20033;-50
2023/03/17 13:08:20;;;;;;;1.80;1.10;;;21.40;46.60;;;;;;5025162;28;20046;-49
2023/03/17 13:10:47;;;;;;;2.13;1.42;;;21.50;46.00;;;;;;5030936;28;20457;-46